sensor_id;sensor_type;location;lat;lon;timestamp;pressure;altitude;pressure_sealevel;temperature;humidity
74678;BME280;63207;56.328;43.994;2022-10-16T00:01:05;101965.22;;;22.04;50.29
74678;BME280;63207;56.328;43.994;2022-10-16T00:03:32;101965.22;;;22.04;50.32
74678;BME280;63207;56.328;43.994;2022-10-16T00:06:00;101971.31;;;22.04;50.19
74678;BME280;63207;56.328;43.994;2022-10-16T00:08:26;101964.34;;;22.03;50.26
74678;BME280;63207;56.328;43.994;2022-10-16T00:10:52;101973.97;;;22.04;50.25
74678;BME280;63207;56.328;43.994;2022-10-16T00:13:24;101969.63;;;22.03;50.24
74678;BME280;63207;56.328;43.994;2022-10-16T00:15:50;101963.53;;;22.03;50.31
74678;BME280;63207;56.328;43.994;2022-10-16T00:18:16;101963.53;;;22.03;50.23
74678;BME280;63207;56.328;43.994;2022-10-16T00:20:41;101961.72;;;22.03;50.24
74678;BME280;63207;56.328;43.994;2022-10-16T00:23:26;101973.13;;;22.04;50.13
74678;BME280;63207;56.328;43.994;2022-10-16T00:26:00;101974.91;;;22.03;50.34
74678;BME280;63207;56.328;43.994;2022-10-16T00:28:26;101974.91;;;22.03;50.28
74678;BME280;63207;56.328;43.994;2022-10-16T00:30:53;101974.06;;;22.03;50.25
74678;BME280;63207;56.328;43.994;2022-10-16T00:33:19;101982.81;;;22.03;50.22
74678;BME280;63207;56.328;43.994;2022-10-16T00:35:45;101985.44;;;22.03;50.25
74678;BME280;63207;56.328;43.994;2022-10-16T00:38:11;101989.78;;;22.04;50.22
74678;BME280;63207;56.328;43.994;2022-10-16T00:40:37;101991.56;;;22.04;50.08
74678;BME280;63207;56.328;43.994;2022-10-16T00:43:12;101991.56;;;22.04;50.26
74678;BME280;63207;56.328;43.994;2022-10-16T00:45:38;101991.56;;;22.04;50.28
74678;BME280;63207;56.328;43.994;2022-10-16T00:48:09;101991.56;;;22.04;50.28
74678;BME280;63207;56.328;43.994;2022-10-16T00:50:36;101991.56;;;22.04;50.24
74678;BME280;63207;56.328;43.994;2022-10-16T00:53:03;101991.56;;;22.04;50.29
74678;BME280;63207;56.328;43.994;2022-10-16T00:55:29;101990.72;;;22.03;50.28
74678;BME280;63207;56.328;43.994;2022-10-16T00:57:56;101991.56;;;22.04;50.23
74678;BME280;63207;56.328;43.994;2022-10-16T01:00:25;101991.56;;;22.04;50.25
74678;BME280;63207;56.328;43.994;2022-10-16T01:02:57;101995.03;;;22.04;50.25
74678;BME280;63207;56.328;43.994;2022-10-16T01:05:25;102001.25;;;22.03;50.22
74678;BME280;63207;56.328;43.994;2022-10-16T01:08:08;101999.47;;;22.04;50.21
74678;BME280;63207;56.328;43.994;2022-10-16T01:10:38;102000.31;;;22.04;50.24
74678;BME280;63207;56.328;43.994;2022-10-16T01:13:08;101995.03;;;22.04;50.32
74678;BME280;63207;56.328;43.994;2022-10-16T01:18:24;102007.38;;;22.04;50.17
74678;BME280;63207;56.328;43.994;2022-10-16T01:21:01;102001.25;;;22.03;50.22
74678;BME280;63207;56.328;43.994;2022-10-16T01:29:14;101992.50;;;22.03;50.22
74678;BME280;63207;56.328;43.994;2022-10-16T01:31:48;101996.84;;;22.04;50.30
74678;BME280;63207;56.328;43.994;2022-10-16T01:34:44;102001.25;;;22.03;50.16
74678;BME280;63207;56.328;43.994;2022-10-16T01:37:16;102002.22;;;22.02;50.29
74678;BME280;63207;56.328;43.994;2022-10-16T01:39:46;102009.16;;;22.03;50.23
74678;BME280;63207;56.328;43.994;2022-10-16T01:42:21;102006.53;;;22.03;50.31
74678;BME280;63207;56.328;43.994;2022-10-16T01:44:51;101996.13;;;22.02;50.27
74678;BME280;63207;56.328;43.994;2022-10-16T01:47:19;102007.50;;;22.02;50.24
74678;BME280;63207;56.328;43.994;2022-10-16T01:49:47;102010.97;;;22.03;50.34
74678;BME280;63207;56.328;43.994;2022-10-16T01:52:17;102002.22;;;22.02;50.29
74678;BME280;63207;56.328;43.994;2022-10-16T01:54:47;102003.06;;;22.03;50.22
74678;BME280;63207;56.328;43.994;2022-10-16T01:57:16;102011.78;;;22.03;50.25
74678;BME280;63207;56.328;43.994;2022-10-16T01:59:49;102009.16;;;22.03;50.23
74678;BME280;63207;56.328;43.994;2022-10-16T02:02:18;102007.38;;;22.04;50.22
74678;BME280;63207;56.328;43.994;2022-10-16T02:04:49;102009.16;;;22.03;50.22
74678;BME280;63207;56.328;43.994;2022-10-16T02:07:17;102024.03;;;22.04;50.23
74678;BME280;63207;56.328;43.994;2022-10-16T02:09:43;102014.31;;;22.05;50.18
74678;BME280;63207;56.328;43.994;2022-10-16T02:12:15;102020.56;;;22.04;50.19
74678;BME280;63207;56.328;43.994;2022-10-16T02:14:43;102014.31;;;22.05;50.29
74678;BME280;63207;56.328;43.994;2022-10-16T02:17:14;102017.06;;;22.03;50.21
74678;BME280;63207;56.328;43.994;2022-10-16T02:19:41;102014.44;;;22.03;50.23
74678;BME280;63207;56.328;43.994;2022-10-16T02:22:14;102024.03;;;22.04;50.27
74678;BME280;63207;56.328;43.994;2022-10-16T02:24:54;102024.03;;;22.04;50.23
74678;BME280;63207;56.328;43.994;2022-10-16T02:30:32;102022.34;;;22.03;50.22
74678;BME280;63207;56.328;43.994;2022-10-16T02:33:02;102027.59;;;22.03;50.16
74678;BME280;63207;56.328;43.994;2022-10-16T02:35:49;102029.41;;;22.03;50.24
74678;BME280;63207;56.328;43.994;2022-10-16T02:38:17;102038.13;;;22.03;50.19
74678;BME280;63207;56.328;43.994;2022-10-16T02:41:03;102027.59;;;22.03;50.14
74678;BME280;63207;56.328;43.994;2022-10-16T02:43:29;102033.72;;;22.04;50.25
74678;BME280;63207;56.328;43.994;2022-10-16T02:45:55;102034.69;;;22.03;50.28
74678;BME280;63207;56.328;43.994;2022-10-16T02:48:21;102035.50;;;22.03;50.24
74678;BME280;63207;56.328;43.994;2022-10-16T02:50:47;102033.84;;;22.02;50.20
74678;BME280;63207;56.328;43.994;2022-10-16T02:53:31;102034.56;;;22.04;50.25
74678;BME280;63207;56.328;43.994;2022-10-16T02:55:57;102033.72;;;22.04;50.22
74678;BME280;63207;56.328;43.994;2022-10-16T02:58:23;102032.88;;;22.03;50.13
74678;BME280;63207;56.328;43.994;2022-10-16T03:00:49;102036.38;;;22.04;50.32
74678;BME280;63207;56.328;43.994;2022-10-16T03:03:33;102039.00;;;22.04;50.23
74678;BME280;63207;56.328;43.994;2022-10-16T03:05:59;102039.00;;;22.04;50.24
74678;BME280;63207;56.328;43.994;2022-10-16T03:08:25;102041.63;;;22.04;50.19
74678;BME280;63207;56.328;43.994;2022-10-16T03:10:51;102036.38;;;22.04;50.11
74678;BME280;63207;56.328;43.994;2022-10-16T03:13:17;102041.63;;;22.04;50.14
74678;BME280;63207;56.328;43.994;2022-10-16T03:15:45;102042.47;;;22.04;50.21
74678;BME280;63207;56.328;43.994;2022-10-16T03:18:30;102042.56;;;22.03;50.34
74678;BME280;63207;56.328;43.994;2022-10-16T03:20:55;102047.00;;;22.02;50.20
74678;BME280;63207;56.328;43.994;2022-10-16T03:23:21;102042.56;;;22.03;50.16
74678;BME280;63207;56.328;43.994;2022-10-16T03:25:47;102039.13;;;22.02;50.25
74678;BME280;63207;56.328;43.994;2022-10-16T03:28:13;102040.78;;;22.03;50.24
74678;BME280;63207;56.328;43.994;2022-10-16T03:30:39;102039.94;;;22.03;50.21
74678;BME280;63207;56.328;43.994;2022-10-16T03:33:05;102046.03;;;22.03;50.31
74678;BME280;63207;56.328;43.994;2022-10-16T03:35:32;102039.00;;;22.04;50.31
74678;BME280;63207;56.328;43.994;2022-10-16T03:37:58;102043.41;;;22.03;50.30
74678;BME280;63207;56.328;43.994;2022-10-16T03:40:24;102049.53;;;22.04;50.17
74678;BME280;63207;56.328;43.994;2022-10-16T03:43:09;102053.94;;;22.03;50.30
74678;BME280;63207;56.328;43.994;2022-10-16T03:45:35;102047.75;;;22.04;50.19
74678;BME280;63207;56.328;43.994;2022-10-16T03:48:00;102053.84;;;22.05;50.28
74678;BME280;63207;56.328;43.994;2022-10-16T03:50:28;102052.19;;;22.04;50.17
74678;BME280;63207;56.328;43.994;2022-10-16T03:52:53;102053.84;;;22.05;50.10
74678;BME280;63207;56.328;43.994;2022-10-16T03:55:19;102066.19;;;22.04;50.11
74678;BME280;63207;56.328;43.994;2022-10-16T03:57:45;102062.72;;;22.04;50.32
74678;BME280;63207;56.328;43.994;2022-10-16T04:00:12;102059.09;;;22.05;50.17
74678;BME280;63207;56.328;43.994;2022-10-16T04:02:38;102067.00;;;22.05;50.22
74678;BME280;63207;56.328;43.994;2022-10-16T04:05:04;102066.03;;;22.06;50.30
74678;BME280;63207;56.328;43.994;2022-10-16T04:07:30;102064.38;;;22.05;50.19
74678;BME280;63207;56.328;43.994;2022-10-16T04:09:56;102067.00;;;22.05;50.22
74678;BME280;63207;56.328;43.994;2022-10-16T04:12:25;102067.00;;;22.05;50.20
74678;BME280;63207;56.328;43.994;2022-10-16T04:15:10;102077.56;;;22.05;50.15
74678;BME280;63207;56.328;43.994;2022-10-16T04:17:54;102076.72;;;22.04;50.18
74678;BME280;63207;56.328;43.994;2022-10-16T04:20:20;102077.56;;;22.05;50.11
74678;BME280;63207;56.328;43.994;2022-10-16T04:23:04;102079.22;;;22.06;50.14
74678;BME280;63207;56.328;43.994;2022-10-16T04:25:30;102080.19;;;22.05;50.21
74678;BME280;63207;56.328;43.994;2022-10-16T04:27:56;102070.63;;;22.04;50.25
74678;BME280;63207;56.328;43.994;2022-10-16T04:30:23;102072.28;;;22.05;50.15
74678;BME280;63207;56.328;43.994;2022-10-16T04:32:50;102071.44;;;22.04;50.31
74678;BME280;63207;56.328;43.994;2022-10-16T04:35:20;102066.19;;;22.04;50.18
74678;BME280;63207;56.328;43.994;2022-10-16T04:37:46;102073.13;;;22.05;50.19
74678;BME280;63207;56.328;43.994;2022-10-16T04:40:13;102067.00;;;22.05;50.19
74678;BME280;63207;56.328;43.994;2022-10-16T04:42:39;102073.13;;;22.05;50.18
74678;BME280;63207;56.328;43.994;2022-10-16T04:45:06;102086.28;;;22.05;50.06
74678;BME280;63207;56.328;43.994;2022-10-16T04:47:32;102080.91;;;22.07;50.16
74678;BME280;63207;56.328;43.994;2022-10-16T04:49:57;102076.59;;;22.06;50.15
74678;BME280;63207;56.328;43.994;2022-10-16T04:52:29;102074.81;;;22.06;50.19
74678;BME280;63207;56.328;43.994;2022-10-16T04:54:57;102073.94;;;22.06;50.14
74678;BME280;63207;56.328;43.994;2022-10-16T04:57:27;102077.44;;;22.06;50.19
74678;BME280;63207;56.328;43.994;2022-10-16T04:59:53;102082.81;;;22.05;50.19
74678;BME280;63207;56.328;43.994;2022-10-16T05:02:18;102082.72;;;22.06;50.20
74678;BME280;63207;56.328;43.994;2022-10-16T05:04:44;102094.19;;;22.05;50.13
74678;BME280;63207;56.328;43.994;2022-10-16T05:07:10;102100.31;;;22.06;50.21
74678;BME280;63207;56.328;43.994;2022-10-16T05:09:36;102111.72;;;22.06;50.13
74678;BME280;63207;56.328;43.994;2022-10-16T05:12:02;102105.56;;;22.06;50.17
74678;BME280;63207;56.328;43.994;2022-10-16T05:14:29;102095.03;;;22.06;50.18
74678;BME280;63207;56.328;43.994;2022-10-16T05:16:55;102106.44;;;22.06;50.13
74678;BME280;63207;56.328;43.994;2022-10-16T05:19:20;102103.81;;;22.06;50.16
74678;BME280;63207;56.328;43.994;2022-10-16T05:21:46;102115.16;;;22.07;50.14
74678;BME280;63207;56.328;43.994;2022-10-16T05:24:12;102106.44;;;22.06;50.14
74678;BME280;63207;56.328;43.994;2022-10-16T05:26:38;102104.63;;;22.07;50.12
74678;BME280;63207;56.328;43.994;2022-10-16T05:29:04;102109.91;;;22.07;50.12
74678;BME280;63207;56.328;43.994;2022-10-16T05:31:30;102108.22;;;22.06;50.19
74678;BME280;63207;56.328;43.994;2022-10-16T05:33:59;102111.72;;;22.06;50.14
74678;BME280;63207;56.328;43.994;2022-10-16T05:36:25;102109.91;;;22.07;50.12
74678;BME280;63207;56.328;43.994;2022-10-16T05:38:52;102102.00;;;22.07;50.13
74678;BME280;63207;56.328;43.994;2022-10-16T05:41:18;102109.91;;;22.07;50.30
74678;BME280;63207;56.328;43.994;2022-10-16T05:43:47;102108.22;;;22.06;50.15
74678;BME280;63207;56.328;43.994;2022-10-16T05:46:14;102102.00;;;22.07;50.16
74678;BME280;63207;56.328;43.994;2022-10-16T05:48:40;102103.81;;;22.06;50.03
74678;BME280;63207;56.328;43.994;2022-10-16T05:51:07;102109.75;;;22.08;50.11
74678;BME280;63207;56.328;43.994;2022-10-16T05:53:36;102098.38;;;22.08;50.22
74678;BME280;63207;56.328;43.994;2022-10-16T05:56:03;102112.53;;;22.07;50.17
74678;BME280;63207;56.328;43.994;2022-10-16T05:58:34;102118.63;;;22.07;50.13
74678;BME280;63207;56.328;43.994;2022-10-16T06:01:07;102126.53;;;22.07;50.09
74678;BME280;63207;56.328;43.994;2022-10-16T06:03:35;102126.53;;;22.07;50.12
74678;BME280;63207;56.328;43.994;2022-10-16T06:06:26;102125.56;;;22.08;50.17
74678;BME280;63207;56.328;43.994;2022-10-16T06:08:53;102122.25;;;22.06;50.14
74678;BME280;63207;56.328;43.994;2022-10-16T06:11:25;102117.81;;;22.07;50.18
74678;BME280;63207;56.328;43.994;2022-10-16T06:14:09;102129.19;;;22.07;50.11
74678;BME280;63207;56.328;43.994;2022-10-16T06:16:36;102116.00;;;22.07;50.11
74678;BME280;63207;56.328;43.994;2022-10-16T06:19:03;102123.91;;;22.07;50.13
74678;BME280;63207;56.328;43.994;2022-10-16T06:21:31;102121.28;;;22.07;50.13
74678;BME280;63207;56.328;43.994;2022-10-16T06:23:58;102130.00;;;22.08;50.13
74678;BME280;63207;56.328;43.994;2022-10-16T06:26:26;102123.91;;;22.07;50.14
74678;BME280;63207;56.328;43.994;2022-10-16T06:29:10;102128.34;;;22.07;50.05
74678;BME280;63207;56.328;43.994;2022-10-16T06:31:36;102124.88;;;22.06;50.16
74678;BME280;63207;56.328;43.994;2022-10-16T06:34:02;102130.00;;;22.08;50.06
74678;BME280;63207;56.328;43.994;2022-10-16T06:36:30;102129.19;;;22.07;50.02
74678;BME280;63207;56.328;43.994;2022-10-16T06:38:56;102129.19;;;22.07;50.08
74678;BME280;63207;56.328;43.994;2022-10-16T06:41:23;102125.72;;;22.07;50.07
74678;BME280;63207;56.328;43.994;2022-10-16T06:43:49;102116.97;;;22.06;50.05
74678;BME280;63207;56.328;43.994;2022-10-16T06:46:17;102123.06;;;22.07;50.16
74678;BME280;63207;56.328;43.994;2022-10-16T06:48:44;102125.72;;;22.07;50.09
74678;BME280;63207;56.328;43.994;2022-10-16T06:51:12;102130.00;;;22.08;50.09
74678;BME280;63207;56.328;43.994;2022-10-16T06:53:40;102125.56;;;22.08;50.08
74678;BME280;63207;56.328;43.994;2022-10-16T06:56:13;102119.47;;;22.08;50.09
74678;BME280;63207;56.328;43.994;2022-10-16T06:58:40;102127.38;;;22.08;50.08
74678;BME280;63207;56.328;43.994;2022-10-16T07:01:07;102129.06;;;22.09;50.10
74678;BME280;63207;56.328;43.994;2022-10-16T07:03:36;102119.47;;;22.08;50.09
74678;BME280;63207;56.328;43.994;2022-10-16T07:06:03;102123.81;;;22.09;50.08
74678;BME280;63207;56.328;43.994;2022-10-16T07:08:37;102117.66;;;22.08;50.08
74678;BME280;63207;56.328;43.994;2022-10-16T07:11:07;102122.09;;;22.08;50.10
74678;BME280;63207;56.328;43.994;2022-10-16T07:13:35;102113.25;;;22.09;50.03
74678;BME280;63207;56.328;43.994;2022-10-16T07:16:16;102122.94;;;22.08;50.11
74678;BME280;63207;56.328;43.994;2022-10-16T07:18:43;102123.81;;;22.09;50.07
74678;BME280;63207;56.328;43.994;2022-10-16T07:21:33;102130.84;;;22.08;50.12
74678;BME280;63207;56.328;43.994;2022-10-16T07:24:04;102133.47;;;22.08;50.10
74678;BME280;63207;56.328;43.994;2022-10-16T07:26:33;102133.47;;;22.08;50.11
74678;BME280;63207;56.328;43.994;2022-10-16T07:28:59;102127.38;;;22.08;50.10
74678;BME280;63207;56.328;43.994;2022-10-16T07:31:26;102139.63;;;22.09;50.11
74678;BME280;63207;56.328;43.994;2022-10-16T07:33:53;102134.34;;;22.09;50.11
74678;BME280;63207;56.328;43.994;2022-10-16T07:36:20;102139.63;;;22.09;50.08
74678;BME280;63207;56.328;43.994;2022-10-16T07:38:46;102147.53;;;22.09;50.08
74678;BME280;63207;56.328;43.994;2022-10-16T07:41:17;102139.72;;;22.07;50.03
74678;BME280;63207;56.328;43.994;2022-10-16T07:43:51;102141.28;;;22.10;50.02
74678;BME280;63207;56.328;43.994;2022-10-16T07:46:19;102134.34;;;22.09;50.11
74678;BME280;63207;56.328;43.994;2022-10-16T07:48:45;102136.13;;;22.08;50.06
74678;BME280;63207;56.328;43.994;2022-10-16T07:51:14;102136.00;;;22.10;50.08
74678;BME280;63207;56.328;43.994;2022-10-16T07:53:41;102137.81;;;22.09;50.06
74678;BME280;63207;56.328;43.994;2022-10-16T07:56:07;102144.88;;;22.09;50.06
74678;BME280;63207;56.328;43.994;2022-10-16T07:58:34;102141.28;;;22.10;49.99
74678;BME280;63207;56.328;43.994;2022-10-16T08:01:07;102132.53;;;22.09;50.05
74678;BME280;63207;56.328;43.994;2022-10-16T08:03:34;102141.28;;;22.10;49.98
74678;BME280;63207;56.328;43.994;2022-10-16T08:06:00;102136.00;;;22.10;50.07
74678;BME280;63207;56.328;43.994;2022-10-16T08:08:45;102134.19;;;22.10;50.08
74678;BME280;63207;56.328;43.994;2022-10-16T08:11:11;102133.38;;;22.10;50.04
74678;BME280;63207;56.328;43.994;2022-10-16T08:13:37;102136.00;;;22.10;50.07
74678;BME280;63207;56.328;43.994;2022-10-16T08:16:03;102132.53;;;22.09;49.95
74678;BME280;63207;56.328;43.994;2022-10-16T08:18:37;102143.91;;;22.10;50.07
74678;BME280;63207;56.328;43.994;2022-10-16T08:21:04;102134.19;;;22.10;50.13
74678;BME280;63207;56.328;43.994;2022-10-16T08:23:30;102133.38;;;22.10;50.02
74678;BME280;63207;56.328;43.994;2022-10-16T08:26:03;102139.47;;;22.10;50.02
74678;BME280;63207;56.328;43.994;2022-10-16T08:28:29;102142.94;;;22.11;50.14
74678;BME280;63207;56.328;43.994;2022-10-16T08:30:55;102137.81;;;22.09;50.01
74678;BME280;63207;56.328;43.994;2022-10-16T08:33:22;102131.56;;;22.10;49.98
74678;BME280;63207;56.328;43.994;2022-10-16T08:35:52;102134.19;;;22.10;50.02
74678;BME280;63207;56.328;43.994;2022-10-16T08:38:19;102135.03;;;22.11;50.03
74678;BME280;63207;56.328;43.994;2022-10-16T08:40:48;102135.03;;;22.11;50.06
74678;BME280;63207;56.328;43.994;2022-10-16T08:46:50;102132.41;;;22.11;50.07
74678;BME280;63207;56.328;43.994;2022-10-16T08:49:20;102116.59;;;22.11;50.04
74678;BME280;63207;56.328;43.994;2022-10-16T08:51:46;102130.63;;;22.11;50.00
74678;BME280;63207;56.328;43.994;2022-10-16T08:54:36;102124.50;;;22.11;49.88
74678;BME280;63207;56.328;43.994;2022-10-16T08:57:13;102125.34;;;22.11;49.98
74678;BME280;63207;56.328;43.994;2022-10-16T08:59:39;102121.03;;;22.10;50.01
74678;BME280;63207;56.328;43.994;2022-10-16T09:02:37;102122.84;;;22.10;50.07
74678;BME280;63207;56.328;43.994;2022-10-16T09:08:03;102125.34;;;22.11;49.94
74678;BME280;63207;56.328;43.994;2022-10-16T09:16:46;102125.34;;;22.11;50.05
74678;BME280;63207;56.328;43.994;2022-10-16T09:19:49;102122.00;;;22.09;49.92
74678;BME280;63207;56.328;43.994;2022-10-16T09:22:26;102125.47;;;22.10;49.98
74678;BME280;63207;56.328;43.994;2022-10-16T09:24:54;102120.19;;;22.10;50.00
74678;BME280;63207;56.328;43.994;2022-10-16T09:27:20;102120.19;;;22.10;50.02
74678;BME280;63207;56.328;43.994;2022-10-16T09:29:46;102117.56;;;22.10;50.01
74678;BME280;63207;56.328;43.994;2022-10-16T09:32:15;102129.75;;;22.11;50.07
74678;BME280;63207;56.328;43.994;2022-10-16T09:35:01;102131.56;;;22.10;50.02
74678;BME280;63207;56.328;43.994;2022-10-16T09:37:28;102128.00;;;22.11;50.04
74678;BME280;63207;56.328;43.994;2022-10-16T09:39:55;102114.81;;;22.11;49.99
74678;BME280;63207;56.328;43.994;2022-10-16T09:42:24;102126.19;;;22.12;49.96
74678;BME280;63207;56.328;43.994;2022-10-16T09:44:53;102134.09;;;22.12;49.96
74678;BME280;63207;56.328;43.994;2022-10-16T09:47:29;102128.69;;;22.13;50.02
74678;BME280;63207;56.328;43.994;2022-10-16T09:50:01;102127.84;;;22.13;49.97
74678;BME280;63207;56.328;43.994;2022-10-16T09:52:30;102133.13;;;22.13;49.93
74678;BME280;63207;56.328;43.994;2022-10-16T09:55:01;102126.91;;;22.14;49.97
74678;BME280;63207;56.328;43.994;2022-10-16T09:57:29;102126.19;;;22.12;50.10
74678;BME280;63207;56.328;43.994;2022-10-16T09:59:57;102123.41;;;22.13;49.88
74678;BME280;63207;56.328;43.994;2022-10-16T10:02:44;102124.28;;;22.14;50.05
74678;BME280;63207;56.328;43.994;2022-10-16T10:05:25;102127.75;;;22.14;50.01
74678;BME280;63207;56.328;43.994;2022-10-16T10:08:03;102121.66;;;22.14;50.07
74678;BME280;63207;56.328;43.994;2022-10-16T10:10:39;102115.50;;;22.13;50.08
74678;BME280;63207;56.328;43.994;2022-10-16T10:13:20;102118.16;;;22.13;50.12
74678;BME280;63207;56.328;43.994;2022-10-16T10:15:46;102114.56;;;22.14;49.97
74678;BME280;63207;56.328;43.994;2022-10-16T10:18:20;102119.84;;;22.14;50.03
74678;BME280;63207;56.328;43.994;2022-10-16T10:20:59;102116.38;;;22.14;49.99
74678;BME280;63207;56.328;43.994;2022-10-16T10:23:28;102111.94;;;22.14;49.92
74678;BME280;63207;56.328;43.994;2022-10-16T10:26:10;102108.47;;;22.14;49.94
74678;BME280;63207;56.328;43.994;2022-10-16T10:28:55;102106.66;;;22.14;49.95
74678;BME280;63207;56.328;43.994;2022-10-16T10:31:42;102110.13;;;22.15;50.02
74678;BME280;63207;56.328;43.994;2022-10-16T10:40:21;102104.84;;;22.15;50.08
74678;BME280;63207;56.328;43.994;2022-10-16T10:45:56;102097.94;;;22.14;49.99
74678;BME280;63207;56.328;43.994;2022-10-16T11:02:38;102105.84;;;22.14;50.05
74678;BME280;63207;56.328;43.994;2022-10-16T11:05:35;102104.84;;;22.15;49.94
74678;BME280;63207;56.328;43.994;2022-10-16T11:15:53;102109.19;;;22.16;50.02
74678;BME280;63207;56.328;43.994;2022-10-16T11:18:29;102110.97;;;22.15;50.00
74678;BME280;63207;56.328;43.994;2022-10-16T11:21:04;102110.03;;;22.17;49.98
74678;BME280;63207;56.328;43.994;2022-10-16T11:23:43;102115.28;;;22.17;50.00
74678;BME280;63207;56.328;43.994;2022-10-16T11:26:17;102115.28;;;22.17;49.98
74678;BME280;63207;56.328;43.994;2022-10-16T11:28:50;102115.28;;;22.17;49.99
74678;BME280;63207;56.328;43.994;2022-10-16T11:34:42;102118.75;;;22.17;49.96
74678;BME280;63207;56.328;43.994;2022-10-16T11:37:36;102112.66;;;22.17;49.94
74678;BME280;63207;56.328;43.994;2022-10-16T11:40:16;102114.31;;;22.18;49.91
74678;BME280;63207;56.328;43.994;2022-10-16T11:42:50;102117.94;;;22.17;49.92
74678;BME280;63207;56.328;43.994;2022-10-16T11:51:29;102112.78;;;22.04;46.08
74678;BME280;63207;56.328;43.994;2022-10-16T11:56:41;102119.09;;;21.79;43.69
74678;BME280;63207;56.328;43.994;2022-10-16T11:59:30;102110.22;;;21.68;43.41
74678;BME280;63207;56.328;43.994;2022-10-16T12:08:18;102111.53;;;21.52;42.78
74678;BME280;63207;56.328;43.994;2022-10-16T12:10:47;102114.50;;;21.47;42.42
74678;BME280;63207;56.328;43.994;2022-10-16T12:13:29;102113.16;;;21.41;42.32
74678;BME280;63207;56.328;43.994;2022-10-16T12:18:37;102099.84;;;21.32;42.50
74678;BME280;63207;56.328;43.994;2022-10-16T12:21:03;102113.13;;;21.30;42.57
74678;BME280;63207;56.328;43.994;2022-10-16T12:26:33;102106.88;;;21.31;43.07
74678;BME280;63207;56.328;43.994;2022-10-16T12:29:28;102104.75;;;21.36;43.24
74678;BME280;63207;56.328;43.994;2022-10-16T12:32:40;102101.94;;;21.39;43.38
74678;BME280;63207;56.328;43.994;2022-10-16T12:35:19;102099.06;;;21.42;43.61
74678;BME280;63207;56.328;43.994;2022-10-16T12:37:47;102100.72;;;21.43;43.73
74678;BME280;63207;56.328;43.994;2022-10-16T12:40:26;102096.28;;;21.44;43.77
74678;BME280;63207;56.328;43.994;2022-10-16T12:48:41;102099.66;;;21.46;43.85
74678;BME280;63207;56.328;43.994;2022-10-16T12:51:25;102092.47;;;21.48;43.89
74678;BME280;63207;56.328;43.994;2022-10-16T12:54:11;102101.22;;;21.48;44.00
74678;BME280;63207;56.328;43.994;2022-10-16T13:02:11;102106.28;;;21.52;44.18
74678;BME280;63207;56.328;43.994;2022-10-16T13:10:32;102099.94;;;21.54;44.31
74678;BME280;63207;56.328;43.994;2022-10-16T13:26:42;102101.25;;;21.60;44.64
74678;BME280;63207;56.328;43.994;2022-10-16T13:29:10;102106.50;;;21.60;44.58
74678;BME280;63207;56.328;43.994;2022-10-16T13:31:38;102103.75;;;21.61;44.68
74678;BME280;63207;56.328;43.994;2022-10-16T13:34:05;102115.13;;;21.62;44.70
74678;BME280;63207;56.328;43.994;2022-10-16T13:36:45;102110.72;;;21.62;44.81
74678;BME280;63207;56.328;43.994;2022-10-16T13:39:21;102118.47;;;21.64;44.79
74678;BME280;63207;56.328;43.994;2022-10-16T13:44:26;102112.25;;;21.65;44.75
74678;BME280;63207;56.328;43.994;2022-10-16T13:47:02;102111.28;;;21.66;44.90
74678;BME280;63207;56.328;43.994;2022-10-16T13:49:28;102113.94;;;21.66;44.92
74678;BME280;63207;56.328;43.994;2022-10-16T13:51:56;102109.38;;;21.68;45.01
74678;BME280;63207;56.328;43.994;2022-10-16T13:54:22;102109.38;;;21.68;45.03
74678;BME280;63207;56.328;43.994;2022-10-16T13:56:49;102112.03;;;21.68;45.04
74678;BME280;63207;56.328;43.994;2022-10-16T13:59:33;102111.09;;;21.69;45.14
74678;BME280;63207;56.328;43.994;2022-10-16T14:02:13;102111.09;;;21.69;45.09
74678;BME280;63207;56.328;43.994;2022-10-16T14:04:41;102119.00;;;21.69;45.18
74678;BME280;63207;56.328;43.994;2022-10-16T14:07:14;102117.06;;;21.71;45.10
74678;BME280;63207;56.328;43.994;2022-10-16T14:09:40;102117.91;;;21.71;45.26
74678;BME280;63207;56.328;43.994;2022-10-16T14:12:24;102111.78;;;21.71;45.16
74678;BME280;63207;56.328;43.994;2022-10-16T14:14:52;102113.47;;;21.72;45.29
74678;BME280;63207;56.328;43.994;2022-10-16T14:17:23;102111.78;;;21.71;45.32
74678;BME280;63207;56.328;43.994;2022-10-16T14:19:53;102110.72;;;21.73;45.41
74678;BME280;63207;56.328;43.994;2022-10-16T14:22:39;102115.13;;;21.73;45.41
74678;BME280;63207;56.328;43.994;2022-10-16T14:27:44;102115.13;;;21.73;45.48
74678;BME280;63207;56.328;43.994;2022-10-16T14:30:20;102108.94;;;21.74;45.58
74678;BME280;63207;56.328;43.994;2022-10-16T14:36:04;102106.31;;;21.74;45.51
74678;BME280;63207;56.328;43.994;2022-10-16T14:38:32;102107.13;;;21.75;45.62
74678;BME280;63207;56.328;43.994;2022-10-16T14:40:59;102114.91;;;21.76;45.66
74678;BME280;63207;56.328;43.994;2022-10-16T14:43:36;102112.25;;;21.76;45.68
74678;BME280;63207;56.328;43.994;2022-10-16T14:46:29;102116.59;;;21.77;45.74
74678;BME280;63207;56.328;43.994;2022-10-16T14:49:15;102110.50;;;21.77;45.84
74678;BME280;63207;56.328;43.994;2022-10-16T14:51:42;102113.00;;;21.78;45.91
74678;BME280;63207;56.328;43.994;2022-10-16T14:54:11;102116.59;;;21.77;45.83
74678;BME280;63207;56.328;43.994;2022-10-16T15:01:56;102117.31;;;21.79;45.87
74678;BME280;63207;56.328;43.994;2022-10-16T15:04:22;102119.09;;;21.79;45.85